createdAt,value
2022-10-05T00:03:22.507Z,12.60
2022-10-05T00:07:31.341Z,12.60
2022-10-05T00:11:39.939Z,12.60
2022-10-05T00:15:49.569Z,12.50
2022-10-05T00:20:19.441Z,12.40
2022-10-05T00:24:28.091Z,12.50
2022-10-05T00:28:56.006Z,12.40
2022-10-05T00:33:23.965Z,12.40
2022-10-05T00:37:35.675Z,12.40
2022-10-05T00:41:56.436Z,12.40
2022-10-05T00:46:27.288Z,12.40
2022-10-05T00:50:57.018Z,12.50
2022-10-05T00:55:26.484Z,12.50
2022-10-05T01:00:00.583Z,12.50
2022-10-05T01:04:17.538Z,12.50
2022-10-05T01:08:41.681Z,12.40
2022-10-05T01:13:26.472Z,12.40
2022-10-05T01:17:50.172Z,12.40
2022-10-05T01:22:04.361Z,12.40
2022-10-05T01:26:35.893Z,12.40
2022-10-05T01:31:08.828Z,12.30
2022-10-05T01:35:20.529Z,12.30
2022-10-05T01:39:41.208Z,12.20
2022-10-05T01:43:55.698Z,12.20
2022-10-05T01:48:10.032Z,12.20
2022-10-05T01:52:24.740Z,12.20
2022-10-05T01:56:42.026Z,12.20
2022-10-05T02:01:28.678Z,12.10
2022-10-05T02:05:44.205Z,12.10
2022-10-05T02:10:16.509Z,12.20
2022-10-05T02:14:28.119Z,12.20
2022-10-05T02:18:59.455Z,12.30
2022-10-05T02:23:11.125Z,12.30
2022-10-05T02:27:22.769Z,12.30
2022-10-05T02:31:52.588Z,12.30
2022-10-05T02:36:10.213Z,12.40
2022-10-05T02:40:42.291Z,12.40
2022-10-05T02:44:59.930Z,12.30
2022-10-05T02:49:26.937Z,12.30
2022-10-05T02:53:41.255Z,12.30
2022-10-05T02:57:55.717Z,12.30
2022-10-05T03:02:28.770Z,12.30
2022-10-05T03:06:43.483Z,12.40
2022-10-05T03:11:13.522Z,12.40
2022-10-05T03:15:33.516Z,12.50
2022-10-05T03:20:13.991Z,12.50
2022-10-05T03:24:40.909Z,12.50
2022-10-05T03:29:09.342Z,12.50
2022-10-05T03:33:42.547Z,12.50
2022-10-05T03:37:54.379Z,12.50
2022-10-05T03:42:11.786Z,12.60
2022-10-05T03:46:56.868Z,12.60
2022-10-05T03:51:08.433Z,12.60
2022-10-05T03:55:31.126Z,12.70
2022-10-05T03:59:43.721Z,12.70
2022-10-05T04:03:55.657Z,12.70
2022-10-05T04:08:07.354Z,12.70
2022-10-05T04:12:24.805Z,12.80
2022-10-05T04:16:45.431Z,12.80
2022-10-05T04:20:57.408Z,12.80
2022-10-05T04:25:30.099Z,12.80
2022-10-05T04:29:47.386Z,12.80
2022-10-05T04:33:59.003Z,12.80
2022-10-05T04:38:36.331Z,12.70
2022-10-05T04:43:03.187Z,12.80
2022-10-05T04:47:38.456Z,12.80
2022-10-05T04:52:20.118Z,12.80
2022-10-05T04:56:44.163Z,12.80
2022-10-05T05:01:20.335Z,12.80
2022-10-05T05:06:15.206Z,12.90
2022-10-05T05:10:04.803Z,12.90
2022-10-05T05:14:39.967Z,12.90
2022-10-05T05:18:54.671Z,12.90
2022-10-05T05:23:06.941Z,13.00
2022-10-05T05:27:21.301Z,13.00
2022-10-05T05:31:50.964Z,13.00
2022-10-05T05:36:16.475Z,13.00
2022-10-05T05:40:30.614Z,13.00
2022-10-05T05:44:45.145Z,13.10
2022-10-05T05:48:56.363Z,13.10
2022-10-05T05:53:16.740Z,13.10
2022-10-05T05:57:37.481Z,13.20
2022-10-05T06:01:52.054Z,13.20
2022-10-05T06:06:24.290Z,13.20
2022-10-05T06:10:39.203Z,13.20
2022-10-05T06:14:51.344Z,13.30
2022-10-05T06:19:12.111Z,13.30
2022-10-05T06:23:41.635Z,13.30
2022-10-05T06:28:15.013Z,13.30
2022-10-05T06:32:53.589Z,13.40
2022-10-05T06:37:05.232Z,13.40
2022-10-05T06:41:41.010Z,13.40
2022-10-05T06:46:02.182Z,13.40
2022-10-05T06:50:34.829Z,13.50
2022-10-05T06:54:59.125Z,13.50
2022-10-05T06:59:31.811Z,13.50
2022-10-05T07:04:03.088Z,13.50
2022-10-05T07:08:20.701Z,13.60
2022-10-05T07:12:47.700Z,13.60
2022-10-05T07:17:08.132Z,13.60
2022-10-05T07:21:22.362Z,13.60
2022-10-05T07:25:34.105Z,13.60
2022-10-05T07:29:45.735Z,13.70
2022-10-05T07:34:17.918Z,13.70
2022-10-05T07:38:35.414Z,13.80
2022-10-05T07:42:59.934Z,13.80
2022-10-05T07:47:14.422Z,13.80
2022-10-05T07:51:26.080Z,13.80
2022-10-05T07:55:37.977Z,13.90
2022-10-05T07:59:55.142Z,14.00
2022-10-05T08:04:25.405Z,14.00
2022-10-05T08:08:56.648Z,14.00
2022-10-05T08:13:24.184Z,14.10
2022-10-05T08:17:55.533Z,14.20
2022-10-05T08:22:14.285Z,14.30
2022-10-05T08:26:37.613Z,14.30
2022-10-05T08:30:58.257Z,14.40
2022-10-05T08:35:31.126Z,14.50
2022-10-05T08:40:12.525Z,14.50
2022-10-05T08:44:43.826Z,14.60
2022-10-05T08:49:14.889Z,14.70
2022-10-05T08:53:43.215Z,14.80
2022-10-05T08:58:17.678Z,14.90
2022-10-05T09:02:47.845Z,14.90
2022-10-05T09:07:22.190Z,15.00
2022-10-05T09:11:40.861Z,15.10
2022-10-05T09:16:02.792Z,15.20
2022-10-05T09:20:32.229Z,15.30
2022-10-05T09:25:10.945Z,15.40
2022-10-05T09:29:39.280Z,15.50
2022-10-05T09:33:59.800Z,15.60
2022-10-05T09:38:58.127Z,15.70
2022-10-05T09:43:35.666Z,15.80
2022-10-05T09:48:03.234Z,15.90
2022-10-05T09:52:21.152Z,16.10
2022-10-05T09:56:35.486Z,16.20
2022-10-05T10:01:33.339Z,16.30
2022-10-05T10:05:34.161Z,16.40
2022-10-05T10:10:15.665Z,16.50
2022-10-05T10:14:52.505Z,16.60
2022-10-05T10:19:07.354Z,16.70
2022-10-05T10:23:55.785Z,16.80
2022-10-05T10:28:28.511Z,16.80
2022-10-05T10:32:46.834Z,16.90
2022-10-05T10:37:21.297Z,17.00
2022-10-05T10:42:01.695Z,17.00
2022-10-05T10:46:16.482Z,17.10
2022-10-05T10:51:04.695Z,17.10
2022-10-05T10:55:40.270Z,17.20
2022-10-05T11:00:16.127Z,17.30
2022-10-05T11:05:02.960Z,17.50
2022-10-05T11:09:20.550Z,17.60
2022-10-05T11:14:04.282Z,17.70
2022-10-05T11:18:53.055Z,17.90
2022-10-05T11:23:07.651Z,18.10
2022-10-05T11:31:47.758Z,18.40
2022-10-05T11:36:17.201Z,18.50
2022-10-05T11:40:34.475Z,18.70
2022-10-05T11:45:02.615Z,19.00
2022-10-05T11:49:35.537Z,19.00
2022-10-05T11:53:50.129Z,19.10
2022-10-05T11:58:26.127Z,19.20
2022-10-05T12:02:55.874Z,19.40
2022-10-05T12:07:34.703Z,19.50
2022-10-05T12:11:46.332Z,19.60
2022-10-05T12:16:09.589Z,19.70
2022-10-05T12:20:24.041Z,19.80
2022-10-05T12:24:41.860Z,19.80
2022-10-05T12:28:56.212Z,19.90
2022-10-05T12:33:10.984Z,19.90
2022-10-05T12:37:44.307Z,20.10
2022-10-05T12:41:57.053Z,20.20
2022-10-05T12:46:29.502Z,20.30
2022-10-05T12:50:51.251Z,20.30
2022-10-05T12:55:25.100Z,20.30
2022-10-05T12:59:45.401Z,20.30
2022-10-05T13:04:06.133Z,20.40
2022-10-05T13:08:38.352Z,20.40
2022-10-05T13:12:58.819Z,20.50
2022-10-05T13:17:31.872Z,20.60
2022-10-05T13:21:49.680Z,20.70
2022-10-05T13:26:03.919Z,20.60
2022-10-05T13:30:31.899Z,20.80
2022-10-05T13:35:00.388Z,20.90
2022-10-05T13:39:23.894Z,20.90
2022-10-05T13:43:53.794Z,21.00
2022-10-05T13:48:05.425Z,21.00
2022-10-05T13:52:51.588Z,21.10
2022-10-05T13:57:21.052Z,21.20
2022-10-05T14:01:54.177Z,21.20
2022-10-05T14:06:05.652Z,21.20
2022-10-05T14:10:17.243Z,21.20
2022-10-05T14:14:30.335Z,21.30
2022-10-05T14:18:40.133Z,21.30
2022-10-05T14:22:52.720Z,21.30
2022-10-05T14:27:02.997Z,21.30
2022-10-05T14:31:17.320Z,21.30
2022-10-05T14:35:32.740Z,21.30
2022-10-05T14:39:44.607Z,21.20
2022-10-05T14:43:56.374Z,21.20
2022-10-05T14:48:12.680Z,21.20
2022-10-05T14:52:32.436Z,21.10
2022-10-05T14:57:00.539Z,21.00
2022-10-05T15:01:17.827Z,20.80
2022-10-05T15:05:50.712Z,20.70
2022-10-05T15:10:10.606Z,20.60
2022-10-05T15:14:24.861Z,20.40
2022-10-05T15:19:00.235Z,20.30
2022-10-05T15:23:12.890Z,20.30
2022-10-05T15:27:26.185Z,20.30
2022-10-05T15:31:54.289Z,20.30
2022-10-05T15:41:01.871Z,20.10
2022-10-05T15:45:25.294Z,20.10
2022-10-05T15:49:56.777Z,20.20
2022-10-05T15:54:26.349Z,20.10
2022-10-05T15:58:53.902Z,20.20
2022-10-05T16:03:21.565Z,20.10
2022-10-05T16:07:53.547Z,20.00
2022-10-05T16:12:11.325Z,19.90
2022-10-05T16:16:31.680Z,19.80
2022-10-05T16:20:52.422Z,19.70
2022-10-05T16:25:04.084Z,19.70
2022-10-05T16:29:18.512Z,19.70
2022-10-05T16:33:47.129Z,19.60
2022-10-05T16:38:11.385Z,19.50
2022-10-05T16:42:44.168Z,19.30
2022-10-05T16:47:27.580Z,19.10
2022-10-05T16:52:00.292Z,18.80
2022-10-05T16:56:14.872Z,18.50
2022-10-05T17:00:52.357Z,18.40
2022-10-05T17:05:32.923Z,18.30
2022-10-05T17:10:13.364Z,18.20
2022-10-05T17:14:30.804Z,18.20
2022-10-05T17:19:01.528Z,18.10
2022-10-05T17:23:31.123Z,18.10
2022-10-05T17:28:11.801Z,18.00
2022-10-05T17:32:33.627Z,18.00
2022-10-05T17:36:45.257Z,18.00
2022-10-05T17:41:06.413Z,18.00
2022-10-05T17:45:18.062Z,17.90
2022-10-05T17:49:51.950Z,17.90
2022-10-05T17:54:20.431Z,17.90
2022-10-05T17:58:32.102Z,17.90
2022-10-05T18:02:43.251Z,17.90
2022-10-05T18:07:04.841Z,18.00
2022-10-05T18:11:33.436Z,18.00
2022-10-05T18:15:45.689Z,17.90
2022-10-05T18:20:09.585Z,17.90
2022-10-05T18:24:22.363Z,17.90
2022-10-05T18:28:55.128Z,17.90
2022-10-05T18:33:26.250Z,17.90
2022-10-05T18:37:56.077Z,17.90
2022-10-05T18:42:41.383Z,17.90
2022-10-05T18:46:58.966Z,17.90
2022-10-05T18:51:31.342Z,17.90
2022-10-05T18:56:06.965Z,17.90
2022-10-05T19:00:21.067Z,17.90
2022-10-05T19:04:55.526Z,18.00
2022-10-05T19:09:22.181Z,17.90
2022-10-05T19:13:39.497Z,17.90
2022-10-05T19:17:51.192Z,17.90
2022-10-05T19:22:17.828Z,17.90
2022-10-05T19:26:45.964Z,17.90
2022-10-05T19:31:09.769Z,17.90
2022-10-05T19:35:24.659Z,18.00
2022-10-05T19:39:36.714Z,18.00
2022-10-05T19:44:05.190Z,18.00
2022-10-05T19:48:44.437Z,17.90
2022-10-05T19:53:00.509Z,17.90
2022-10-05T19:57:13.880Z,17.90
2022-10-05T20:01:31.810Z,17.90
2022-10-05T20:05:41.265Z,17.90
2022-10-05T20:10:10.737Z,17.80
2022-10-05T20:14:22.526Z,17.80
2022-10-05T20:19:08.042Z,17.80
2022-10-05T20:23:24.551Z,17.80
2022-10-05T20:27:42.215Z,17.70
2022-10-05T20:31:50.905Z,17.80
2022-10-05T20:36:00.270Z,17.90
2022-10-05T20:40:10.434Z,17.90
2022-10-05T20:44:19.000Z,18.00
2022-10-05T20:48:27.829Z,18.00
2022-10-05T20:52:37.708Z,18.10
2022-10-05T20:56:46.866Z,18.00
2022-10-05T21:01:13.423Z,18.00
2022-10-05T21:05:22.177Z,18.10
2022-10-05T21:09:31.293Z,18.20
2022-10-05T21:13:42.350Z,18.20
2022-10-05T21:17:50.933Z,18.20
2022-10-05T21:21:59.515Z,18.20
2022-10-05T21:26:08.081Z,18.30
2022-10-05T21:30:16.735Z,18.30
2022-10-05T21:34:25.305Z,18.30
2022-10-05T21:38:34.898Z,18.20
2022-10-05T21:42:43.468Z,18.00
2022-10-05T21:46:52.567Z,17.70
2022-10-05T21:51:02.201Z,17.50
2022-10-05T21:55:12.178Z,17.40
2022-10-05T21:59:23.889Z,17.30
2022-10-05T22:03:32.542Z,17.20
2022-10-05T22:07:41.151Z,17.20
2022-10-05T22:11:50.083Z,17.10
2022-10-05T22:16:19.630Z,17.10
2022-10-05T22:20:28.515Z,17.00
2022-10-05T22:24:37.172Z,17.00
2022-10-05T22:28:46.908Z,16.90
2022-10-05T22:32:55.517Z,16.90
2022-10-05T22:37:05.035Z,16.90
2022-10-05T22:41:15.655Z,16.70
2022-10-05T22:45:27.146Z,16.10
2022-10-05T22:49:34.890Z,15.70
2022-10-05T22:53:43.475Z,15.40
2022-10-05T22:57:52.068Z,15.20
2022-10-05T23:02:00.840Z,15.10
2022-10-05T23:10:52.558Z,14.80
2022-10-05T23:15:01.952Z,14.70
2022-10-05T23:19:23.887Z,14.70
2022-10-05T23:23:32.464Z,14.60
2022-10-05T23:27:43.450Z,14.60
2022-10-05T23:31:52.029Z,14.60
2022-10-05T23:36:09.944Z,14.60
2022-10-05T23:40:18.596Z,14.60
2022-10-05T23:44:27.217Z,14.60
2022-10-05T23:48:56.640Z,14.70
2022-10-05T23:53:06.486Z,14.60
2022-10-05T23:57:19.292Z,14.60
